createdAt,value
2017-10-08T00:00:04.765Z,0
2017-10-08T00:01:13.755Z,0
2017-10-08T00:02:22.733Z,0
2017-10-08T00:03:31.398Z,0
2017-10-08T00:04:40.384Z,0
2017-10-08T00:05:49.390Z,0
2017-10-08T00:06:58.365Z,0
2017-10-08T00:08:07.970Z,0
2017-10-08T00:09:17.295Z,0
2017-10-08T00:10:26.272Z,0
2017-10-08T00:11:35.055Z,0
2017-10-08T00:12:44.983Z,0
2017-10-08T00:13:54.909Z,0
2017-10-08T00:15:04.211Z,0
2017-10-08T00:16:12.952Z,0
2017-10-08T00:17:21.626Z,0
2017-10-08T00:18:30.922Z,0
2017-10-08T00:19:40.205Z,0
2017-10-08T00:20:49.500Z,0
2017-10-08T00:21:59.104Z,0
2017-10-08T00:23:08.411Z,0
2017-10-08T00:24:17.390Z,0
2017-10-08T00:25:26.668Z,0
2017-10-08T00:26:35.964Z,0
2017-10-08T00:27:44.955Z,0
2017-10-08T00:28:54.091Z,0
2017-10-08T00:30:03.077Z,0
2017-10-08T00:31:11.825Z,0
2017-10-08T00:32:20.481Z,0
2017-10-08T00:33:29.450Z,0
2017-10-08T00:34:38.261Z,0
2017-10-08T00:35:46.941Z,0
2017-10-08T00:36:56.226Z,0
2017-10-08T00:38:05.198Z,0
2017-10-08T00:39:14.174Z,0
2017-10-08T00:40:23.547Z,0
2017-10-08T00:41:32.516Z,0
2017-10-08T00:42:41.181Z,0
2017-10-08T00:43:49.846Z,0
2017-10-08T00:44:58.872Z,0
2017-10-08T00:46:08.473Z,0
2017-10-08T00:47:17.153Z,0
2017-10-08T00:48:26.124Z,0
2017-10-08T00:49:35.417Z,0
2017-10-08T00:50:44.387Z,0
2017-10-08T00:51:54.615Z,0
2017-10-08T00:53:03.914Z,0
2017-10-08T00:54:12.898Z,0
2017-10-08T00:55:22.205Z,0
2017-10-08T00:56:31.816Z,0
2017-10-08T00:57:40.802Z,0
2017-10-08T00:58:50.128Z,0
2017-10-08T00:59:59.110Z,0
2017-10-08T01:01:08.712Z,0
2017-10-08T01:02:17.692Z,0
2017-10-08T01:03:26.670Z,0
2017-10-08T01:04:35.649Z,0
2017-10-08T01:05:45.257Z,0
2017-10-08T01:06:53.913Z,0
2017-10-08T01:08:03.193Z,0
2017-10-08T01:09:12.258Z,0
2017-10-08T01:10:21.535Z,0
2017-10-08T01:11:30.862Z,0
2017-10-08T01:12:40.484Z,0
2017-10-08T01:13:49.155Z,0
2017-10-08T01:14:57.889Z,0
2017-10-08T01:16:06.546Z,0
2017-10-08T01:17:15.540Z,0
2017-10-08T01:18:24.839Z,0
2017-10-08T01:19:33.806Z,0
2017-10-08T01:20:43.417Z,0
2017-10-08T01:21:52.411Z,0
2017-10-08T01:23:02.348Z,0
2017-10-08T01:24:11.341Z,0
2017-10-08T01:25:20.630Z,0
2017-10-08T01:26:29.299Z,0
2017-10-08T01:27:38.262Z,0
2017-10-08T01:28:47.278Z,0
2017-10-08T01:29:56.581Z,0
2017-10-08T01:31:05.577Z,0
2017-10-08T01:32:15.017Z,0
2017-10-08T01:33:23.997Z,0
2017-10-08T01:34:33.279Z,0
2017-10-08T01:35:42.268Z,0
2017-10-08T01:36:51.255Z,0
2017-10-08T01:37:59.949Z,0
2017-10-08T01:39:08.917Z,0
2017-10-08T01:40:17.577Z,0
2017-10-08T01:41:26.558Z,0
2017-10-08T01:42:35.226Z,0
2017-10-08T01:43:44.195Z,0
2017-10-08T01:44:52.853Z,0
2017-10-08T01:46:01.527Z,0
2017-10-08T01:47:10.834Z,0
2017-10-08T01:48:20.154Z,0
2017-10-08T01:49:29.599Z,0
2017-10-08T01:50:38.579Z,0
2017-10-08T01:51:47.255Z,0
2017-10-08T01:52:56.236Z,0
2017-10-08T01:54:05.540Z,0
2017-10-08T01:55:14.616Z,0
2017-10-08T01:56:23.599Z,0
2017-10-08T01:57:33.197Z,0
2017-10-08T01:58:42.491Z,0
2017-10-08T01:59:51.466Z,0
2017-10-08T02:01:00.750Z,0
2017-10-08T02:02:10.359Z,0
2017-10-08T02:03:19.346Z,0
2017-10-08T02:04:28.313Z,0
2017-10-08T02:05:37.291Z,0
2017-10-08T02:06:46.888Z,0
2017-10-08T02:07:55.551Z,0
2017-10-08T02:09:05.177Z,0
2017-10-08T02:10:14.162Z,0
2017-10-08T02:11:23.168Z,0
2017-10-08T02:12:31.877Z,0
2017-10-08T02:13:40.590Z,0
2017-10-08T02:14:49.909Z,0
2017-10-08T02:15:58.580Z,0
2017-10-08T02:17:07.231Z,0
2017-10-08T02:18:16.200Z,0
2017-10-08T02:19:24.859Z,0
2017-10-08T02:20:33.860Z,0
2017-10-08T02:21:43.156Z,0
2017-10-08T02:22:52.466Z,0
2017-10-08T02:24:01.265Z,0
2017-10-08T02:25:09.927Z,0
2017-10-08T02:26:18.924Z,0
2017-10-08T02:27:28.217Z,0
2017-10-08T02:28:37.576Z,0
2017-10-08T02:29:46.251Z,0
2017-10-08T02:30:54.957Z,0
2017-10-08T02:32:03.939Z,0
2017-10-08T02:33:13.562Z,0
2017-10-08T02:34:22.541Z,0
2017-10-08T02:35:32.197Z,0
2017-10-08T02:36:41.496Z,0
2017-10-08T02:37:50.511Z,0
2017-10-08T02:38:59.495Z,0
2017-10-08T02:40:09.107Z,0
2017-10-08T02:41:17.769Z,0
2017-10-08T02:42:27.089Z,0
2017-10-08T02:43:35.756Z,0
2017-10-08T02:44:44.728Z,0
2017-10-08T02:45:54.354Z,0
2017-10-08T02:47:03.431Z,0
2017-10-08T02:48:12.398Z,0
2017-10-08T02:49:21.068Z,0
2017-10-08T02:50:30.073Z,0
2017-10-08T02:51:38.728Z,0
2017-10-08T02:52:47.726Z,0
2017-10-08T02:53:56.383Z,0
2017-10-08T02:55:05.369Z,0
2017-10-08T02:56:15.297Z,0
2017-10-08T02:57:24.912Z,0
2017-10-08T02:58:34.216Z,0
2017-10-08T02:59:43.830Z,0
2017-10-08T03:00:53.117Z,0
2017-10-08T03:02:02.410Z,0
2017-10-08T03:03:12.002Z,0
2017-10-08T03:04:21.286Z,0
2017-10-08T03:05:30.270Z,0
2017-10-08T03:06:39.261Z,0
2017-10-08T03:07:48.569Z,0
2017-10-08T03:08:57.259Z,0
2017-10-08T03:10:06.533Z,0
2017-10-08T03:11:15.212Z,0
2017-10-08T03:12:23.870Z,0
2017-10-08T03:13:32.901Z,0
2017-10-08T03:14:41.891Z,0
2017-10-08T03:15:50.990Z,0
2017-10-08T03:17:00.277Z,0
2017-10-08T03:18:09.262Z,0
2017-10-08T03:19:18.561Z,0
2017-10-08T03:20:27.230Z,0
2017-10-08T03:21:36.834Z,0
2017-10-08T03:22:45.488Z,0
2017-10-08T03:23:54.781Z,0
2017-10-08T03:25:04.101Z,0
2017-10-08T03:26:13.461Z,0
2017-10-08T03:27:22.138Z,0
2017-10-08T03:28:31.112Z,0
2017-10-08T03:29:39.782Z,0
2017-10-08T03:30:49.700Z,0
2017-10-08T03:31:58.655Z,0
2017-10-08T03:33:08.279Z,0
2017-10-08T03:34:17.247Z,0
2017-10-08T03:35:26.856Z,0
2017-10-08T03:36:35.837Z,0
2017-10-08T03:37:44.812Z,0
2017-10-08T03:38:53.594Z,0
2017-10-08T03:40:02.569Z,0
2017-10-08T03:41:12.199Z,0
2017-10-08T03:42:21.202Z,0
2017-10-08T03:43:30.183Z,0
2017-10-08T03:44:39.153Z,0
2017-10-08T03:45:47.826Z,0
2017-10-08T03:46:57.114Z,0
2017-10-08T03:48:06.082Z,0
2017-10-08T03:49:15.056Z,0
2017-10-08T03:50:24.364Z,0
2017-10-08T03:51:33.658Z,0
2017-10-08T03:52:42.335Z,0
2017-10-08T03:53:51.005Z,0
2017-10-08T03:54:59.990Z,0
2017-10-08T03:56:08.967Z,0
2017-10-08T03:57:17.942Z,0
2017-10-08T03:58:27.244Z,0
2017-10-08T03:59:36.535Z,0
2017-10-08T04:00:45.202Z,0
2017-10-08T04:01:54.209Z,0
2017-10-08T04:03:03.197Z,0
2017-10-08T04:04:12.228Z,0
2017-10-08T04:05:53.635Z,0
2017-10-08T04:07:02.935Z,0
2017-10-08T04:08:12.262Z,0
2017-10-08T04:09:21.559Z,0
2017-10-08T04:10:30.545Z,0
2017-10-08T04:11:39.849Z,0
2017-10-08T04:12:48.666Z,0
2017-10-08T04:13:57.336Z,0
2017-10-08T04:15:06.657Z,0
2017-10-08T04:16:15.337Z,0
2017-10-08T04:17:24.636Z,0
2017-10-08T04:18:33.500Z,0
2017-10-08T04:19:42.823Z,0
2017-10-08T04:20:51.814Z,0
2017-10-08T04:22:01.124Z,0
2017-10-08T04:23:10.729Z,0
2017-10-08T04:24:19.715Z,0
2017-10-08T04:25:28.689Z,0
2017-10-08T04:26:37.987Z,0
2017-10-08T04:27:46.973Z,0
2017-10-08T04:28:56.588Z,0
2017-10-08T04:30:05.582Z,0
2017-10-08T04:31:14.877Z,0
2017-10-08T04:32:23.870Z,0
2017-10-08T04:33:33.189Z,0
2017-10-08T04:34:42.185Z,0
2017-10-08T04:35:51.160Z,0
2017-10-08T04:37:00.138Z,0
2017-10-08T04:38:08.889Z,0
2017-10-08T04:39:17.570Z,0
2017-10-08T04:40:27.193Z,0
2017-10-08T04:41:35.905Z,0
2017-10-08T04:42:44.571Z,0
2017-10-08T04:43:54.192Z,0
2017-10-08T04:45:03.504Z,0
2017-10-08T04:46:12.484Z,0
2017-10-08T04:47:22.101Z,0
2017-10-08T04:48:31.404Z,0
2017-10-08T04:49:40.399Z,0
2017-10-08T04:50:49.713Z,0
2017-10-08T04:51:59.323Z,0
2017-10-08T04:53:08.420Z,0
2017-10-08T04:54:18.030Z,0
2017-10-08T04:55:26.706Z,0
2017-10-08T04:56:36.011Z,0
2017-10-08T04:57:45.337Z,0
2017-10-08T04:58:54.328Z,0
2017-10-08T05:00:03.319Z,0
2017-10-08T05:01:12.616Z,0
2017-10-08T05:02:21.609Z,0
2017-10-08T05:03:30.611Z,0
2017-10-08T05:04:40.057Z,0
2017-10-08T05:05:49.033Z,0
2017-10-08T05:06:58.027Z,0
2017-10-08T05:08:07.628Z,0
2017-10-08T05:09:16.315Z,0
2017-10-08T05:10:25.347Z,0
2017-10-08T05:11:34.016Z,0
2017-10-08T05:12:42.997Z,0
2017-10-08T05:13:51.983Z,0
2017-10-08T05:15:00.997Z,0
2017-10-08T05:16:09.769Z,0
2017-10-08T05:17:18.447Z,0
2017-10-08T05:18:27.762Z,0
2017-10-08T05:19:37.378Z,0
2017-10-08T05:20:46.373Z,0
2017-10-08T05:21:55.675Z,0
2017-10-08T05:23:04.349Z,0
2017-10-08T05:24:13.346Z,0
2017-10-08T05:25:22.680Z,0
2017-10-08T05:26:31.674Z,0
2017-10-08T05:27:41.339Z,0
2017-10-08T05:28:50.669Z,0
2017-10-08T05:29:59.994Z,0
2017-10-08T05:31:09.301Z,0
2017-10-08T05:32:17.985Z,0
2017-10-08T05:33:27.003Z,0
2017-10-08T05:34:35.998Z,0
2017-10-08T05:35:44.678Z,0
2017-10-08T05:36:53.676Z,0
2017-10-08T05:38:02.993Z,0
2017-10-08T05:39:11.976Z,0
2017-10-08T05:40:20.668Z,0
2017-10-08T05:41:29.658Z,0
2017-10-08T05:42:38.340Z,0
2017-10-08T05:43:47.646Z,0
2017-10-08T05:44:56.936Z,0
2017-10-08T05:46:05.923Z,0
2017-10-08T05:47:14.906Z,0
2017-10-08T05:48:23.894Z,0
2017-10-08T05:49:32.877Z,0
2017-10-08T05:50:41.714Z,0
2017-10-08T05:51:50.714Z,0
2017-10-08T05:52:59.402Z,0
2017-10-08T05:54:08.378Z,0
2017-10-08T05:55:17.384Z,0
2017-10-08T05:56:26.688Z,0
2017-10-08T05:57:36.629Z,0
2017-10-08T05:58:45.315Z,0
2017-10-08T05:59:53.993Z,0
2017-10-08T06:01:02.988Z,0
2017-10-08T06:02:12.279Z,0
2017-10-08T06:03:21.612Z,0
2017-10-08T06:04:30.606Z,0
2017-10-08T06:05:40.539Z,0
2017-10-08T06:06:49.827Z,0
2017-10-08T06:07:59.425Z,0
2017-10-08T06:09:08.773Z,0
2017-10-08T06:10:17.438Z,0
2017-10-08T06:11:26.751Z,0
2017-10-08T06:12:36.056Z,0
2017-10-08T06:13:45.362Z,0
2017-10-08T06:14:54.043Z,5
2017-10-08T06:16:03.086Z,5
2017-10-08T06:17:12.081Z,0
2017-10-08T06:18:21.388Z,5
2017-10-08T06:19:30.073Z,5
2017-10-08T06:20:39.053Z,5
2017-10-08T06:21:48.505Z,5
2017-10-08T06:22:58.122Z,5
2017-10-08T06:24:08.160Z,5
2017-10-08T06:25:17.567Z,5
2017-10-08T06:26:26.577Z,10
2017-10-08T06:27:35.292Z,10
2017-10-08T06:28:45.471Z,15
2017-10-08T06:29:55.418Z,15
2017-10-08T06:31:05.393Z,10
2017-10-08T06:32:15.727Z,15
2017-10-08T06:33:24.877Z,10
2017-10-08T06:34:33.596Z,10
2017-10-08T06:35:43.209Z,10
2017-10-08T06:36:52.855Z,15
2017-10-08T06:38:01.845Z,20
2017-10-08T06:39:10.519Z,15
2017-10-08T06:40:20.559Z,20
2017-10-08T06:41:29.349Z,25
2017-10-08T06:42:38.752Z,25
2017-10-08T06:43:48.184Z,25
2017-10-08T06:44:57.823Z,5
2017-10-08T06:46:07.217Z,5
2017-10-08T06:47:17.351Z,5
2017-10-08T06:48:26.041Z,10
2017-10-08T06:49:35.527Z,10
2017-10-08T06:50:44.822Z,5
2017-10-08T06:51:54.313Z,10
2017-10-08T06:53:03.418Z,10
2017-10-08T06:54:12.217Z,10
2017-10-08T06:55:21.017Z,10
2017-10-08T06:56:30.354Z,15
2017-10-08T06:57:39.678Z,15
2017-10-08T06:58:48.679Z,10
2017-10-08T06:59:57.973Z,10
2017-10-08T07:01:07.000Z,5
2017-10-08T07:02:16.303Z,10
2017-10-08T07:03:25.294Z,5
2017-10-08T07:04:34.590Z,5
2017-10-08T07:05:44.002Z,0
2017-10-08T07:06:52.997Z,5
2017-10-08T07:08:01.971Z,5
2017-10-08T07:09:10.956Z,0
2017-10-08T07:10:19.945Z,0
2017-10-08T07:11:29.382Z,0
2017-10-08T07:12:39.409Z,0
2017-10-08T07:13:48.410Z,5
2017-10-08T07:14:57.426Z,5
2017-10-08T07:16:06.170Z,5
2017-10-08T07:17:15.162Z,10
2017-10-08T07:18:24.170Z,10
2017-10-08T07:19:33.175Z,5
2017-10-08T07:20:42.493Z,5
2017-10-08T07:21:51.476Z,10
2017-10-08T07:23:00.532Z,10
2017-10-08T07:24:09.517Z,10
2017-10-08T07:25:18.541Z,10
2017-10-08T07:26:27.524Z,10
2017-10-08T07:27:36.828Z,10
2017-10-08T07:28:46.489Z,10
2017-10-08T07:29:55.563Z,5
2017-10-08T07:31:04.547Z,10
2017-10-08T07:32:14.161Z,10
2017-10-08T07:33:23.153Z,15
2017-10-08T07:34:32.486Z,20
2017-10-08T07:35:41.813Z,20
2017-10-08T07:36:50.826Z,10
2017-10-08T07:38:00.182Z,10
2017-10-08T07:39:09.172Z,15
2017-10-08T07:40:18.475Z,30
2017-10-08T07:41:27.461Z,50
2017-10-08T07:42:36.821Z,30
2017-10-08T07:43:45.839Z,40
2017-10-08T07:44:54.915Z,30
2017-10-08T07:46:04.252Z,10
2017-10-08T07:47:13.238Z,15
2017-10-08T07:48:21.925Z,15
2017-10-08T07:49:31.592Z,15
2017-10-08T07:50:40.655Z,30
2017-10-08T07:51:49.672Z,25
2017-10-08T07:52:58.724Z,20
2017-10-08T07:54:08.054Z,40
2017-10-08T07:55:17.357Z,40
2017-10-08T07:56:26.352Z,25
2017-10-08T07:57:35.398Z,35
2017-10-08T07:58:44.384Z,40
2017-10-08T07:59:53.717Z,55
2017-10-08T08:01:02.704Z,60
2017-10-08T08:02:12.005Z,40
2017-10-08T08:03:20.818Z,20
2017-10-08T08:04:29.484Z,20
2017-10-08T08:05:38.469Z,35
2017-10-08T08:06:47.138Z,40
2017-10-08T08:07:56.436Z,25
2017-10-08T08:09:05.106Z,20
2017-10-08T08:10:14.173Z,30
2017-10-08T08:11:23.170Z,45
2017-10-08T08:12:31.849Z,45
2017-10-08T08:13:40.539Z,40
2017-10-08T08:14:49.562Z,35
2017-10-08T08:15:58.870Z,35
2017-10-08T08:17:07.909Z,25
2017-10-08T08:18:16.588Z,20
2017-10-08T08:19:25.594Z,25
2017-10-08T08:20:35.108Z,25
2017-10-08T08:21:44.126Z,25
2017-10-08T08:22:53.428Z,35
2017-10-08T08:24:02.425Z,40
2017-10-08T08:25:11.391Z,25
2017-10-08T08:26:20.379Z,20
2017-10-08T08:27:29.381Z,25
2017-10-08T08:28:38.368Z,20
2017-10-08T08:29:47.143Z,25
2017-10-08T08:30:56.451Z,30
2017-10-08T08:32:05.457Z,30
2017-10-08T08:33:14.485Z,35
2017-10-08T08:34:23.809Z,30
2017-10-08T08:35:32.489Z,35
2017-10-08T08:36:41.462Z,55
2017-10-08T08:37:50.523Z,50
2017-10-08T08:38:59.490Z,45
2017-10-08T08:40:09.110Z,45
2017-10-08T08:41:17.806Z,60
2017-10-08T08:42:26.796Z,40
2017-10-08T08:43:35.847Z,30
2017-10-08T08:44:45.204Z,25
2017-10-08T08:45:54.198Z,45
2017-10-08T08:47:04.436Z,45
2017-10-08T08:48:13.775Z,40
2017-10-08T08:49:22.622Z,55
2017-10-08T08:50:31.347Z,45
2017-10-08T08:51:40.694Z,45
2017-10-08T08:52:49.355Z,30
2017-10-08T08:53:58.042Z,45
2017-10-08T08:55:07.176Z,35
2017-10-08T08:56:16.205Z,25
2017-10-08T08:57:25.600Z,40
2017-10-08T08:58:35.275Z,40
2017-10-08T08:59:43.956Z,35
2017-10-08T09:00:53.449Z,35
2017-10-08T09:02:02.140Z,50
2017-10-08T09:03:11.465Z,45
2017-10-08T09:04:20.520Z,45
2017-10-08T09:05:30.109Z,25
2017-10-08T09:06:39.335Z,30
2017-10-08T09:07:48.644Z,20
2017-10-08T09:08:57.629Z,25
2017-10-08T09:10:06.301Z,25
2017-10-08T09:11:15.450Z,10
2017-10-08T09:12:25.114Z,10
2017-10-08T09:13:34.392Z,15
2017-10-08T09:14:44.914Z,30
2017-10-08T09:15:55.385Z,50
2017-10-08T09:17:05.665Z,50
2017-10-08T09:18:14.723Z,35
2017-10-08T09:19:24.664Z,20
2017-10-08T09:20:34.673Z,10
2017-10-08T09:21:43.697Z,10
2017-10-08T09:22:53.480Z,10
2017-10-08T09:24:02.885Z,10
2017-10-08T09:25:11.742Z,10
2017-10-08T09:26:21.368Z,10
2017-10-08T09:27:31.301Z,10
2017-10-08T09:28:40.005Z,10
2017-10-08T09:29:49.309Z,15
2017-10-08T09:30:58.284Z,15
2017-10-08T09:32:08.219Z,20
2017-10-08T09:33:17.516Z,20
2017-10-08T09:34:26.815Z,30
2017-10-08T09:35:36.462Z,40
2017-10-08T09:36:45.453Z,40
2017-10-08T09:37:54.468Z,25
2017-10-08T09:39:04.090Z,40
2017-10-08T09:40:13.406Z,40
2017-10-08T09:41:22.724Z,30
2017-10-08T09:42:33.493Z,35
2017-10-08T09:43:43.582Z,30
2017-10-08T09:44:53.512Z,25
2017-10-08T09:46:02.486Z,20
2017-10-08T09:47:12.683Z,15
2017-10-08T09:48:22.307Z,20
2017-10-08T09:49:31.297Z,30
2017-10-08T09:50:40.598Z,35
2017-10-08T09:51:49.920Z,35
2017-10-08T09:52:58.585Z,25
2017-10-08T09:54:07.268Z,20
2017-10-08T09:55:16.268Z,25
2017-10-08T09:56:26.196Z,25
2017-10-08T09:57:35.314Z,20
2017-10-08T09:58:44.340Z,15
2017-10-08T09:59:53.370Z,15
2017-10-08T10:01:02.053Z,15
2017-10-08T10:02:11.400Z,20
2017-10-08T10:03:20.097Z,25
2017-10-08T10:04:29.412Z,35
2017-10-08T10:05:38.764Z,45
2017-10-08T10:06:48.063Z,45
2017-10-08T10:07:56.805Z,45
2017-10-08T10:09:05.865Z,40
2017-10-08T10:10:15.179Z,40
2017-10-08T10:11:23.885Z,45
2017-10-08T10:12:33.199Z,45
2017-10-08T10:13:42.198Z,40
2017-10-08T10:14:50.906Z,30
2017-10-08T10:15:59.601Z,30
2017-10-08T10:17:08.721Z,30
2017-10-08T10:18:18.039Z,35
2017-10-08T10:19:27.412Z,35
2017-10-08T10:20:36.471Z,35
2017-10-08T10:21:45.591Z,35
2017-10-08T10:22:54.617Z,45
2017-10-08T10:24:03.647Z,45
2017-10-08T10:25:13.007Z,35
2017-10-08T10:26:21.705Z,20
2017-10-08T10:27:30.673Z,20
2017-10-08T10:28:39.676Z,20
2017-10-08T10:29:48.515Z,20
2017-10-08T10:30:57.587Z,25
2017-10-08T10:32:06.777Z,25
2017-10-08T10:33:16.131Z,30
2017-10-08T10:34:25.425Z,40
2017-10-08T10:35:34.746Z,35
2017-10-08T10:36:44.057Z,30
2017-10-08T10:37:53.196Z,25
2017-10-08T10:39:02.488Z,20
2017-10-08T10:40:11.747Z,20
2017-10-08T10:41:21.172Z,15
2017-10-08T10:42:30.543Z,15
2017-10-08T10:43:39.878Z,20
2017-10-08T10:44:49.582Z,20
2017-10-08T10:45:58.584Z,20
2017-10-08T10:47:07.919Z,15
2017-10-08T10:48:16.596Z,15
2017-10-08T10:49:25.599Z,15
2017-10-08T10:50:34.939Z,15
2017-10-08T10:51:44.264Z,15
2017-10-08T10:52:52.938Z,20
2017-10-08T10:54:02.096Z,20
2017-10-08T10:55:11.398Z,25
2017-10-08T10:56:20.690Z,25
2017-10-08T10:57:29.353Z,35
2017-10-08T10:58:38.332Z,40
2017-10-08T10:59:47.937Z,35
2017-10-08T11:00:57.274Z,25
2017-10-08T11:02:06.330Z,20
2017-10-08T11:03:15.111Z,15
2017-10-08T11:04:25.401Z,15
2017-10-08T11:05:34.709Z,15
2017-10-08T11:06:43.804Z,10
2017-10-08T11:07:53.097Z,10
2017-10-08T11:09:02.075Z,10
2017-10-08T11:10:11.169Z,10
2017-10-08T11:11:20.165Z,10
2017-10-08T11:12:29.148Z,10
2017-10-08T11:13:37.829Z,10
2017-10-08T11:14:46.826Z,10
2017-10-08T11:15:56.144Z,15
2017-10-08T11:17:05.756Z,15
2017-10-08T11:18:15.168Z,15
2017-10-08T11:19:24.149Z,15
2017-10-08T11:20:33.761Z,15
2017-10-08T11:21:42.743Z,15
2017-10-08T11:22:52.060Z,20
2017-10-08T11:24:01.043Z,20
2017-10-08T11:25:09.732Z,20
2017-10-08T11:26:19.097Z,15
2017-10-08T11:27:27.769Z,15
2017-10-08T11:28:36.459Z,15
2017-10-08T11:29:45.422Z,15
2017-10-08T11:30:54.411Z,15
2017-10-08T11:32:03.736Z,15
2017-10-08T11:33:13.964Z,15
2017-10-08T11:34:22.757Z,20
2017-10-08T11:35:32.046Z,20
2017-10-08T11:36:41.234Z,20
2017-10-08T11:37:49.878Z,25
2017-10-08T11:38:59.236Z,25
2017-10-08T11:40:07.898Z,30
2017-10-08T11:41:16.670Z,30
2017-10-08T11:42:25.638Z,25
2017-10-08T11:43:34.662Z,25
2017-10-08T11:44:43.637Z,30
2017-10-08T11:45:52.544Z,30
2017-10-08T11:47:01.954Z,30
2017-10-08T11:48:11.486Z,25
2017-10-08T11:49:21.221Z,25
2017-10-08T11:50:29.944Z,25
2017-10-08T11:51:39.362Z,30
2017-10-08T11:52:48.902Z,30
2017-10-08T11:53:58.192Z,30
2017-10-08T11:55:06.869Z,40
2017-10-08T11:56:16.158Z,40
2017-10-08T11:57:24.915Z,40
2017-10-08T11:58:34.389Z,40
2017-10-08T11:59:43.345Z,35
2017-10-08T12:00:52.059Z,35
2017-10-08T12:02:00.715Z,35
2017-10-08T12:03:09.711Z,35
2017-10-08T12:04:19.086Z,35
2017-10-08T12:05:28.689Z,40
2017-10-08T12:06:37.376Z,40
2017-10-08T12:07:46.062Z,35
2017-10-08T12:08:55.669Z,30
2017-10-08T12:10:04.677Z,30
2017-10-08T12:11:13.657Z,25
2017-10-08T12:12:22.950Z,25
2017-10-08T12:13:32.278Z,25
2017-10-08T12:14:41.580Z,25
2017-10-08T12:15:51.305Z,30
2017-10-08T12:17:00.356Z,30
2017-10-08T12:18:09.734Z,30
2017-10-08T12:19:19.076Z,30
2017-10-08T12:20:27.754Z,25
2017-10-08T12:21:36.887Z,25
2017-10-08T12:22:46.200Z,25
2017-10-08T12:23:55.505Z,20
2017-10-08T12:25:04.161Z,20
2017-10-08T12:26:13.472Z,25
2017-10-08T12:27:22.524Z,25
2017-10-08T12:28:31.496Z,25
2017-10-08T12:29:40.495Z,30
2017-10-08T12:30:49.484Z,25
2017-10-08T12:31:58.481Z,25
2017-10-08T12:33:07.285Z,20
2017-10-08T12:34:16.311Z,20
2017-10-08T12:35:25.323Z,20
2017-10-08T12:36:34.624Z,20
2017-10-08T12:37:43.598Z,20
2017-10-08T12:38:52.986Z,25
2017-10-08T12:40:01.963Z,25
2017-10-08T12:41:10.751Z,30
2017-10-08T12:42:19.845Z,25
2017-10-08T12:43:29.255Z,25
2017-10-08T12:44:38.243Z,25
2017-10-08T12:45:46.985Z,25
2017-10-08T12:46:56.420Z,25
2017-10-08T12:48:06.108Z,25
2017-10-08T12:49:14.833Z,25
2017-10-08T12:50:23.628Z,25
2017-10-08T12:51:33.324Z,25
2017-10-08T12:52:43.028Z,25
2017-10-08T12:53:52.725Z,20
2017-10-08T12:55:01.751Z,20
2017-10-08T12:56:11.036Z,20
2017-10-08T12:57:20.522Z,20
2017-10-08T12:58:29.984Z,20
2017-10-08T12:59:39.022Z,20
2017-10-08T13:00:48.506Z,20
2017-10-08T13:01:58.100Z,20
2017-10-08T13:03:07.665Z,20
2017-10-08T13:04:17.067Z,15
2017-10-08T13:05:26.258Z,15
2017-10-08T13:06:35.219Z,15
2017-10-08T13:07:45.546Z,15
2017-10-08T13:08:54.222Z,15
2017-10-08T13:10:03.210Z,15
2017-10-08T13:11:11.901Z,20
2017-10-08T13:12:20.880Z,20
2017-10-08T13:13:29.858Z,25
2017-10-08T13:14:39.468Z,25
2017-10-08T13:15:48.443Z,30
2017-10-08T13:16:57.752Z,30
2017-10-08T13:18:07.379Z,30
2017-10-08T13:19:16.358Z,30
2017-10-08T13:20:25.662Z,25
2017-10-08T13:21:35.288Z,15
2017-10-08T13:22:43.956Z,15
2017-10-08T13:23:52.943Z,10
2017-10-08T13:25:02.274Z,0
2017-10-08T13:26:11.272Z,0
2017-10-08T13:27:20.265Z,0
2017-10-08T13:28:29.242Z,0
2017-10-08T13:29:37.914Z,0
2017-10-08T13:30:47.197Z,0
2017-10-08T13:31:56.511Z,0
2017-10-08T13:33:05.504Z,0
2017-10-08T13:34:14.482Z,5
2017-10-08T13:35:23.465Z,0
2017-10-08T13:36:33.546Z,0
2017-10-08T13:37:42.540Z,5
2017-10-08T13:38:51.203Z,5
2017-10-08T13:40:00.508Z,0
2017-10-08T13:41:09.199Z,0
2017-10-08T13:42:18.186Z,0
2017-10-08T13:43:26.856Z,5
2017-10-08T13:44:35.541Z,5
2017-10-08T13:45:44.845Z,5
2017-10-08T13:46:53.862Z,5
2017-10-08T13:48:03.482Z,5
2017-10-08T13:49:12.472Z,5
2017-10-08T13:50:21.468Z,5
2017-10-08T13:51:30.428Z,5
2017-10-08T13:52:39.409Z,5
2017-10-08T13:53:48.402Z,5
2017-10-08T13:54:57.380Z,5
2017-10-08T13:56:06.369Z,5
2017-10-08T13:57:15.701Z,5
2017-10-08T13:58:24.710Z,5
2017-10-08T13:59:34.004Z,5
2017-10-08T14:00:43.312Z,10
2017-10-08T14:01:52.620Z,15
2017-10-08T14:03:01.593Z,15
2017-10-08T14:04:10.604Z,20
2017-10-08T14:05:19.613Z,15
2017-10-08T14:06:28.278Z,10
2017-10-08T14:07:37.296Z,15
2017-10-08T14:08:46.275Z,10
2017-10-08T14:09:55.919Z,10
2017-10-08T14:11:04.587Z,10
2017-10-08T14:12:13.574Z,10
2017-10-08T14:13:22.897Z,5
2017-10-08T14:14:32.062Z,5
2017-10-08T14:15:42.345Z,10
2017-10-08T14:16:51.141Z,10
2017-10-08T14:18:00.971Z,10
2017-10-08T14:19:09.962Z,10
2017-10-08T14:20:19.648Z,15
2017-10-08T14:21:28.657Z,20
2017-10-08T14:22:37.338Z,20
2017-10-08T14:23:46.030Z,20
2017-10-08T14:24:55.636Z,20
2017-10-08T14:26:04.610Z,20
2017-10-08T14:27:13.599Z,15
2017-10-08T14:28:22.703Z,15
2017-10-08T14:29:31.391Z,15
2017-10-08T14:30:40.697Z,15
2017-10-08T14:31:49.692Z,10
2017-10-08T14:32:58.668Z,10
2017-10-08T14:34:07.993Z,5
2017-10-08T14:35:16.666Z,5
2017-10-08T14:36:25.642Z,5
2017-10-08T14:37:34.941Z,5
2017-10-08T14:38:44.238Z,5
2017-10-08T14:39:53.566Z,5
2017-10-08T14:41:02.258Z,5
2017-10-08T14:42:11.270Z,5
2017-10-08T14:43:19.952Z,5
2017-10-08T14:44:28.938Z,10
2017-10-08T14:45:38.738Z,10
2017-10-08T14:46:48.369Z,10
2017-10-08T14:47:57.660Z,10
2017-10-08T14:49:06.657Z,10
2017-10-08T14:50:15.718Z,10
2017-10-08T14:51:24.377Z,10
2017-10-08T14:52:33.356Z,10
2017-10-08T14:53:42.038Z,5
2017-10-08T14:54:51.013Z,5
2017-10-08T14:56:00.018Z,5
2017-10-08T14:57:08.722Z,10
2017-10-08T14:58:17.397Z,5
2017-10-08T14:59:26.697Z,5
2017-10-08T15:00:35.355Z,5
2017-10-08T15:01:44.364Z,5
2017-10-08T15:02:54.000Z,5
2017-10-08T15:04:02.966Z,5
2017-10-08T15:05:11.705Z,5
2017-10-08T15:06:21.326Z,5
2017-10-08T15:07:30.612Z,5
2017-10-08T15:08:39.604Z,5
2017-10-08T15:09:49.224Z,5
2017-10-08T15:10:58.540Z,5
2017-10-08T15:12:07.517Z,5
2017-10-08T15:13:16.834Z,5
2017-10-08T15:14:25.509Z,5
2017-10-08T15:15:34.807Z,5
2017-10-08T15:16:43.798Z,5
2017-10-08T15:17:52.779Z,5
2017-10-08T15:19:02.149Z,5
2017-10-08T15:20:11.595Z,5
2017-10-08T15:21:20.568Z,5
2017-10-08T15:22:29.257Z,5
2017-10-08T15:23:38.229Z,5
2017-10-08T15:24:47.210Z,5
2017-10-08T15:25:56.498Z,5
2017-10-08T15:27:06.415Z,5
2017-10-08T15:28:15.413Z,5
2017-10-08T15:29:24.699Z,5
2017-10-08T15:30:33.686Z,5
2017-10-08T15:31:42.784Z,5
2017-10-08T15:32:51.796Z,5
2017-10-08T15:34:01.108Z,0
2017-10-08T15:35:10.097Z,0
2017-10-08T15:36:19.393Z,0
2017-10-08T15:37:28.086Z,0
2017-10-08T15:38:37.800Z,0
2017-10-08T15:39:46.523Z,0
2017-10-08T15:40:55.513Z,5
2017-10-08T15:42:04.173Z,5
2017-10-08T15:43:12.912Z,5
2017-10-08T15:44:21.577Z,5
2017-10-08T15:45:30.931Z,5
2017-10-08T15:46:40.598Z,5
2017-10-08T15:47:49.407Z,5
2017-10-08T15:48:59.104Z,5
2017-10-08T15:50:07.813Z,5
2017-10-08T15:51:16.788Z,5
2017-10-08T15:52:25.770Z,0
2017-10-08T15:53:34.745Z,0
2017-10-08T15:54:43.732Z,0
2017-10-08T15:55:52.424Z,0
2017-10-08T15:57:01.407Z,0
2017-10-08T15:58:10.723Z,0
2017-10-08T15:59:19.806Z,0
2017-10-08T16:00:29.722Z,0
2017-10-08T16:01:38.763Z,0
2017-10-08T16:02:47.567Z,0
2017-10-08T16:03:56.305Z,0
2017-10-08T16:05:05.310Z,0
2017-10-08T16:06:15.317Z,0
2017-10-08T16:07:24.311Z,0
2017-10-08T16:08:33.088Z,0
2017-10-08T16:09:43.444Z,0
2017-10-08T16:10:52.759Z,0
2017-10-08T16:12:02.056Z,0
2017-10-08T16:13:11.382Z,0
2017-10-08T16:14:20.261Z,0
2017-10-08T16:15:29.655Z,0
2017-10-08T16:16:38.991Z,0
2017-10-08T16:17:47.750Z,0
2017-10-08T16:18:56.768Z,0
2017-10-08T16:20:05.765Z,0
2017-10-08T16:21:14.780Z,0
2017-10-08T16:22:24.901Z,0
2017-10-08T16:23:34.395Z,0
2017-10-08T16:24:44.971Z,0
2017-10-08T16:25:54.288Z,0
2017-10-08T16:27:03.003Z,0
2017-10-08T16:28:12.704Z,0
2017-10-08T16:29:21.834Z,0
2017-10-08T16:30:31.374Z,0
2017-10-08T16:31:41.070Z,0
2017-10-08T16:32:50.949Z,0
2017-10-08T16:34:00.205Z,0
2017-10-08T16:35:09.305Z,0
2017-10-08T16:36:17.973Z,0
2017-10-08T16:37:27.658Z,0
2017-10-08T16:38:36.631Z,0
2017-10-08T16:39:45.610Z,0
2017-10-08T16:40:55.585Z,0
2017-10-08T16:42:05.438Z,0
2017-10-08T16:43:14.114Z,0
2017-10-08T16:44:24.266Z,0
2017-10-08T16:45:33.630Z,0
2017-10-08T16:46:43.522Z,0